Time;durP1;ratioP1;P1;durP2;ratioP2;P2;SDS_P1;SDS_P2;PMS_P1;PMS_P2;Temp;Humidity;BMP_temperature;BMP_pressure;BME280_temperature;BME280_humidity;BME280_pressure;Samples;Min_cycle;Max_cycle;Signal;HPM_P1;HPM_P2
2023/09/28 00:02:06;;;;;;;5.60;5.10;;;;;;;13.15;100.00;96882.50;5042928;28;20603;-56
2023/09/28 00:04:33;;;;;;;9.53;5.87;;;;;;;13.20;100.00;96890.00;5042643;28;20346;-55
2023/09/28 00:07:00;;;;;;;6.47;5.53;;;;;;;13.23;100.00;96890.53;5043142;28;20622;-56
2023/09/28 00:09:26;;;;;;;6.00;5.40;;;;;;;13.26;100.00;96894.69;5042391;28;20192;-55
2023/09/28 00:11:52;;;;;;;5.63;5.13;;;;;;;13.22;100.00;96893.31;5043071;28;20195;-55
2023/09/28 00:14:19;;;;;;;7.53;5.30;;;;;;;13.24;100.00;96883.41;5042306;28;20512;-55
2023/09/28 00:16:44;;;;;;;6.13;5.53;;;;;;;13.28;100.00;96892.72;5042591;28;20533;-57
2023/09/28 00:19:11;;;;;;;5.93;5.35;;;;;;;13.28;100.00;96887.41;5042921;28;20207;-55
2023/09/28 00:21:37;;;;;;;8.73;5.37;;;;;;;13.27;100.00;96888.41;5042586;28;20883;-57
2023/09/28 00:24:06;;;;;;;6.27;5.37;;;;;;;13.32;100.00;96896.75;5043511;28;20239;-55
2023/09/28 00:26:32;;;;;;;6.93;5.60;;;;;;;13.25;100.00;96896.50;5042127;28;20636;-56
2023/09/28 00:28:57;;;;;;;6.67;5.37;;;;;;;13.23;100.00;96897.66;5042030;28;20747;-55
2023/09/28 00:31:24;;;;;;;5.83;5.30;;;;;;;13.23;100.00;96892.34;5042238;28;20218;-57
2023/09/28 00:33:50;;;;;;;8.33;4.77;;;;;;;13.23;100.00;96892.34;5041672;28;20644;-55
2023/09/28 00:36:16;;;;;;;6.20;5.60;;;;;;;13.27;100.00;96893.72;5041106;28;20304;-54
2023/09/28 00:38:42;;;;;;;5.13;4.63;;;;;;;13.26;100.00;96892.88;5042106;28;20204;-55
2023/09/28 00:41:10;;;;;;;7.70;5.00;;;;;;;13.26;100.00;96895.53;5042865;28;20531;-55
2023/09/28 00:43:35;;;;;;;5.37;4.93;;;;;;;13.29;100.00;96897.03;5041706;28;20614;-56
2023/09/28 00:46:03;;;;;;;5.90;5.40;;;;;;;13.30;100.00;96901.38;5042111;28;20211;-56
2023/09/28 00:48:28;;;;;;;6.00;5.43;;;;;;;13.31;100.00;96906.53;5041761;28;20306;-55
2023/09/28 00:50:54;;;;;;;7.57;5.63;;;;;;;13.29;100.00;96911.16;5044898;28;20286;-57
2023/09/28 00:53:21;;;;;;;6.67;5.27;;;;;;;13.26;100.00;96907.97;5047743;28;20223;-56
2023/09/28 00:55:49;;;;;;;6.27;5.67;;;;;;;13.23;100.00;96908.28;5043514;28;20208;-55
2023/09/28 00:58:16;;;;;;;6.83;5.70;;;;;;;13.27;100.00;96910.50;5041788;28;20200;-56
2023/09/28 01:00:42;;;;;;;5.77;5.27;;;;;;;13.28;100.00;96906.00;5042006;28;20211;-56
2023/09/28 01:03:08;;;;;;;5.93;5.33;;;;;;;13.31;100.00;96905.69;5041884;28;20222;-55
2023/09/28 01:05:39;;;;;;;6.90;5.30;;;;;;;13.28;100.00;96903.34;5042050;28;21009;-54
2023/09/28 01:08:06;;;;;;;6.10;5.50;;;;;;;13.31;100.00;96916.31;5041933;28;20208;-56
2023/09/28 01:10:35;;;;;;;5.80;5.20;;;;;;;13.31;100.00;96901.22;5042928;28;20513;-54
2023/09/28 01:13:05;;;;;;;6.23;4.97;;;;;;;13.34;100.00;96906.22;5041234;28;20674;-55
2023/09/28 01:15:32;;;;;;;6.27;5.40;;;;;;;13.37;100.00;96905.09;5042294;28;20294;-55
2023/09/28 01:17:59;;;;;;;5.50;5.00;;;;;;;13.39;100.00;96908.44;5042331;28;20212;-57
2023/09/28 01:20:34;;;;;;;6.30;5.70;;;;;;;13.40;100.00;96904.75;5041642;28;20559;-55
2023/09/28 01:23:03;;;;;;;6.93;5.50;;;;;;;13.37;100.00;96905.91;5041804;28;20320;-56
2023/09/28 01:25:28;;;;;;;6.70;6.00;;;;;;;13.35;100.00;96901.75;5041780;28;20224;-56
2023/09/28 01:27:55;;;;;;;6.30;5.70;;;;;;;13.35;100.00;96902.59;5043785;28;20322;-55
2023/09/28 01:30:20;;;;;;;6.37;5.77;;;;;;;13.35;100.00;96907.06;5042452;28;20539;-55
2023/09/28 01:32:47;;;;;;;7.47;5.60;;;;;;;13.35;100.00;96907.06;5042899;28;20211;-59
2023/09/28 01:35:12;;;;;;;6.73;5.67;;;;;;;13.35;100.00;96907.06;5045352;28;20594;-55
2023/09/28 01:37:47;;;;;;;5.73;5.23;;;;;;;13.38;100.00;96906.75;5048527;28;20199;-56
2023/09/28 01:40:14;;;;;;;5.50;4.90;;;;;;;13.39;100.00;96903.13;5046225;28;20550;-56
2023/09/28 01:42:41;;;;;;;6.00;5.00;;;;;;;13.42;100.00;96902.81;5042809;28;20210;-55
2023/09/28 01:45:07;;;;;;;4.97;4.53;;;;;;;13.40;100.00;96905.59;5042404;28;20675;-55
2023/09/28 01:47:34;;;;;;;7.70;5.30;;;;;;;13.41;100.00;96906.44;5042256;28;20215;-54
2023/09/28 01:50:00;;;;;;;5.60;5.10;;;;;;;13.41;100.00;96901.13;5041236;28;20215;-56
2023/09/28 01:52:27;;;;;;;7.07;5.37;;;;;;;13.44;100.00;96906.13;5041791;28;20211;-56
2023/09/28 01:54:52;;;;;;;5.78;5.18;;;;;;;13.46;100.00;96898.84;5041535;28;20207;-55
2023/09/28 01:57:20;;;;;;;7.82;5.65;;;;;;;13.44;100.00;96906.13;5042384;28;20203;-55
2023/09/28 01:59:46;;;;;;;6.22;5.55;;;;;;;13.46;100.00;96909.50;5041512;28;20207;-54
2023/09/28 02:02:12;;;;;;;6.20;5.60;;;;;;;13.46;100.00;96914.81;5041520;28;20219;-55
2023/09/28 02:04:38;;;;;;;8.07;5.37;;;;;;;13.45;100.00;96907.81;5040789;28;20219;-55
2023/09/28 02:07:04;;;;;;;7.17;5.70;;;;;;;13.41;100.00;96901.13;5041281;28;20206;-55
2023/09/28 02:09:30;;;;;;;6.07;5.47;;;;;;;13.45;100.00;96910.47;5041725;28;20204;-55
2023/09/28 02:11:56;;;;;;;8.17;5.37;;;;;;;13.47;100.00;96903.16;5042692;28;20211;-56
2023/09/28 02:14:23;;;;;;;6.37;5.30;;;;;;;13.45;100.00;96905.16;5041411;28;20199;-55
2023/09/28 02:16:50;;;;;;;7.93;5.20;;;;;;;13.45;100.00;96913.97;5041817;28;20199;-56
2023/09/28 02:19:15;;;;;;;6.30;5.70;;;;;;;13.44;100.00;96906.13;5041034;28;20214;-56
2023/09/28 02:21:42;;;;;;;5.90;5.30;;;;;;;13.43;100.00;96910.59;5041656;28;20513;-56
2023/09/28 02:24:08;;;;;;;5.80;5.03;;;;;;;13.43;100.00;96915.91;5041016;28;20238;-55
2023/09/28 02:26:34;;;;;;;5.50;5.00;;;;;;;13.46;100.00;96920.13;5041613;28;20272;-55
2023/09/28 02:29:00;;;;;;;5.23;4.73;;;;;;;13.48;100.00;96915.47;5041595;28;20274;-55
2023/09/28 02:31:28;;;;;;;8.07;5.60;;;;;;;13.48;100.00;96920.78;5041355;28;20617;-56
2023/09/28 02:33:54;;;;;;;7.68;5.25;;;;;;;13.47;100.00;96921.75;5040705;28;20287;-54
2023/09/28 02:36:22;;;;;;;6.57;5.50;;;;;;;13.48;100.00;96920.78;5041993;28;20299;-55
2023/09/28 02:38:48;;;;;;;7.93;5.63;;;;;;;13.49;100.00;96927.78;5040883;28;20698;-55
2023/09/28 02:41:20;;;;;;;7.43;5.10;;;;;;;13.49;100.00;96930.44;5042411;28;20204;-56
2023/09/28 02:43:46;;;;;;;5.30;4.80;;;;;;;13.52;100.00;96930.13;5040684;28;20892;-56
2023/09/28 02:46:13;;;;;;;6.00;5.40;;;;;;;13.52;100.00;96929.28;5041143;28;20227;-55
2023/09/28 02:48:39;;;;;;;8.13;5.80;;;;;;;13.49;100.00;96933.09;5040587;28;20204;-55
2023/09/28 02:51:07;;;;;;;6.53;5.80;;;;;;;13.51;100.00;96933.75;5040793;28;20210;-55
2023/09/28 02:53:33;;;;;;;6.30;5.50;;;;;;;13.51;100.00;96931.09;5041429;28;20299;-54
2023/09/28 02:55:59;;;;;;;9.13;5.70;;;;;;;13.49;100.00;96924.28;5040747;28;20290;-55
2023/09/28 02:58:25;;;;;;;6.40;5.80;;;;;;;13.52;100.00;96930.13;5040930;28;20257;-54
2023/09/28 03:00:52;;;;;;;10.37;6.00;;;;;;;13.53;100.00;96928.28;5043679;28;20207;-56
2023/09/28 03:03:17;;;;;;;6.43;5.70;;;;;;;13.57;100.00;96927.00;5044126;28;20215;-56
2023/09/28 03:05:46;;;;;;;6.33;5.67;;;;;;;13.55;100.00;96923.66;5044537;28;20229;-54
2023/09/28 03:08:14;;;;;;;6.13;5.63;;;;;;;13.51;100.00;96920.47;5044226;28;20211;-56
2023/09/28 03:10:40;;;;;;;6.30;5.70;;;;;;;13.53;100.00;96926.47;5044552;28;20210;-55
2023/09/28 03:13:06;;;;;;;5.87;5.27;;;;;;;13.55;100.00;96924.50;5044630;28;20586;-55
2023/09/28 03:15:33;;;;;;;8.37;5.43;;;;;;;13.58;100.00;96926.00;5044299;28;20192;-55
2023/09/28 03:17:59;;;;;;;5.53;4.53;;;;;;;13.58;100.00;96923.34;5044562;28;20207;-55
2023/09/28 03:20:26;;;;;;;5.23;4.83;;;;;;;13.58;100.00;96926.00;5043853;28;20218;-55
2023/09/28 03:22:52;;;;;;;5.20;4.73;;;;;;;13.56;100.00;96926.16;5043721;28;20218;-56
2023/09/28 03:25:20;;;;;;;5.70;5.20;;;;;;;13.53;100.00;96923.81;5044566;28;20605;-56
2023/09/28 03:27:48;;;;;;;5.10;4.70;;;;;;;13.50;100.00;96923.28;5043768;28;20231;-56
2023/09/28 03:30:15;;;;;;;7.17;4.90;;;;;;;13.53;100.00;96931.78;5044461;28;20204;-56
2023/09/28 03:32:40;;;;;;;7.30;4.77;;;;;;;13.57;100.00;96930.47;5043589;28;20656;-56
2023/09/28 03:35:09;;;;;;;8.87;5.30;;;;;;;13.59;100.00;96931.16;5043237;28;20204;-56
2023/09/28 03:37:35;;;;;;;6.63;5.23;;;;;;;13.62;100.00;96925.53;5043603;28;20215;-57
2023/09/28 03:40:09;;;;;;;5.73;5.13;;;;;;;13.63;100.00;96932.53;5043583;28;20207;-57
2023/09/28 03:42:36;;;;;;;6.77;5.00;;;;;;;13.64;100.00;96926.22;5044288;28;20215;-57
2023/09/28 03:45:04;;;;;;;7.27;4.53;;;;;;;13.63;100.00;96924.56;5043334;28;20239;-54
2023/09/28 03:47:30;;;;;;;6.53;5.47;;;;;;;13.63;100.00;96927.22;5044219;28;20195;-55
2023/09/28 03:49:56;;;;;;;5.03;4.63;;;;;;;13.65;100.00;96924.38;5045238;28;20211;-55
2023/09/28 03:52:23;;;;;;;6.27;5.07;;;;;;;13.66;100.00;96924.25;5049882;28;20188;-54
2023/09/28 03:54:49;;;;;;;7.40;5.70;;;;;;;13.66;100.00;96920.75;5051193;28;20214;-56
2023/09/28 03:57:17;;;;;;;7.13;4.70;;;;;;;13.66;100.00;96915.44;5061509;28;20200;-55
2023/09/28 03:59:43;;;;;;;5.63;5.10;;;;;;;13.63;100.00;96921.91;5053637;28;20237;-55
2023/09/28 04:02:10;;;;;;;7.83;5.47;;;;;;;13.61;100.00;96923.88;5047275;28;20203;-55
2023/09/28 04:04:37;;;;;;;6.80;5.00;;;;;;;13.74;100.00;96928.78;5044002;28;20309;-55
2023/09/28 04:07:03;;;;;;;5.45;4.85;;;;;;;13.72;100.00;96928.09;5044603;28;20195;-60
2023/09/28 04:09:32;;;;;;;6.07;5.22;;;;;;;13.64;100.00;96938.69;5043534;28;20200;-56
2023/09/28 04:11:59;;;;;;;5.15;4.68;;;;;;;13.59;100.00;96931.16;5043748;28;20211;-58
2023/09/28 04:14:27;;;;;;;5.28;4.78;;;;;;;13.50;100.00;96928.63;5044875;28;20214;-56
2023/09/28 04:16:53;;;;;;;7.32;4.45;;;;;;;13.47;100.00;96927.06;5042938;28;20200;-58
2023/09/28 04:19:20;;;;;;;4.93;4.30;;;;;;;13.48;100.00;96935.88;5042535;28;20199;-58
2023/09/28 04:21:46;;;;;;;6.67;4.53;;;;;;;13.42;100.00;96934.69;5044516;28;20616;-57
2023/09/28 04:24:13;;;;;;;5.63;4.43;;;;;;;13.51;100.00;96949.69;5043394;28;20204;-61
2023/09/28 04:26:40;;;;;;;5.80;4.72;;;;;;;13.47;100.00;96958.94;5043970;28;20214;-56
2023/09/28 04:29:07;;;;;;;5.17;4.67;;;;;;;13.45;100.00;96945.84;5044492;28;20277;-55
2023/09/28 04:31:35;;;;;;;6.35;4.60;;;;;;;13.41;100.00;96948.94;5043155;28;20609;-55
2023/09/28 04:34:02;;;;;;;5.72;4.65;;;;;;;13.37;100.00;96942.25;5042520;28;20222;-54
2023/09/28 04:36:29;;;;;;;6.22;4.80;;;;;;;13.37;100.00;96959.03;5042092;28;20211;-56
2023/09/28 04:38:56;;;;;;;7.65;4.78;;;;;;;13.48;100.00;96954.47;5043812;28;20287;-55
2023/09/28 04:41:22;;;;;;;6.53;5.25;;;;;;;13.43;100.00;96952.28;5043009;28;20304;-56
2023/09/28 04:43:48;;;;;;;6.28;4.38;;;;;;;13.44;100.00;96951.28;5044433;28;20226;-57
2023/09/28 04:46:15;;;;;;;5.00;4.50;;;;;;;13.46;100.00;96947.50;5041919;28;20232;-55
2023/09/28 04:48:43;;;;;;;6.10;5.03;;;;;;;13.48;100.00;96947.34;5041755;28;20236;-56
2023/09/28 04:51:09;;;;;;;5.20;4.70;;;;;;;13.48;100.00;96941.19;5042126;28;20640;-56
2023/09/28 04:53:36;;;;;;;5.70;5.07;;;;;;;13.45;100.00;96942.34;5043167;28;20214;-56
2023/09/28 04:56:08;;;;;;;5.27;4.77;;;;;;;13.44;100.00;96948.63;5043876;28;20205;-55
2023/09/28 04:58:35;;;;;;;6.53;5.05;;;;;;;13.41;100.00;96940.97;5044103;28;20200;-57
2023/09/28 05:01:01;;;;;;;8.27;5.23;;;;;;;13.40;100.00;96945.44;5042805;28;20226;-56
2023/09/28 05:03:28;;;;;;;5.65;5.03;;;;;;;13.33;100.00;96941.75;5041389;28;20218;-55
2023/09/28 05:05:56;;;;;;;7.93;4.80;;;;;;;13.34;100.00;96947.88;5042504;28;20226;-55
2023/09/28 05:08:23;;;;;;;6.13;5.22;;;;;;;13.32;100.00;96952.53;5041623;28;20196;-54
2023/09/28 05:10:50;;;;;;;6.67;5.20;;;;;;;13.33;100.00;96962.16;5042788;28;20219;-55
2023/09/28 05:13:18;;;;;;;6.97;4.95;;;;;;;13.31;100.00;96948.19;5043442;28;20207;-55
2023/09/28 05:15:44;;;;;;;7.35;5.13;;;;;;;13.29;100.00;96950.16;5041831;28;20237;-55
2023/09/28 05:18:11;;;;;;;7.13;4.77;;;;;;;13.28;100.00;96959.13;5041354;28;20199;-55
2023/09/28 05:20:37;;;;;;;6.20;5.17;;;;;;;13.27;100.00;96963.59;5042359;28;20274;-55
2023/09/28 05:23:05;;;;;;;6.03;5.30;;;;;;;13.24;100.00;96963.06;5041603;28;20195;-56
2023/09/28 05:25:33;;;;;;;5.65;5.13;;;;;;;13.21;100.00;96968.69;5042405;28;20242;-56
2023/09/28 05:28:00;;;;;;;5.72;5.05;;;;;;;13.23;100.00;96970.19;5043076;28;20334;-55
2023/09/28 05:30:26;;;;;;;8.17;5.00;;;;;;;13.24;100.00;96976.34;5041694;28;20208;-55
2023/09/28 05:32:53;;;;;;;5.88;4.90;;;;;;;13.25;100.00;96975.38;5041485;28;20199;-56
2023/09/28 05:35:21;;;;;;;6.43;4.80;;;;;;;13.27;100.00;96984.84;5041566;28;20269;-56
2023/09/28 05:37:48;;;;;;;5.47;4.97;;;;;;;13.28;100.00;96983.03;5042064;28;20207;-56
2023/09/28 05:40:16;;;;;;;6.40;4.82;;;;;;;13.28;100.00;96975.91;5041400;28;20199;-56
2023/09/28 05:42:42;;;;;;;9.93;5.18;;;;;;;13.31;100.00;96980.06;5040737;28;20846;-56
2023/09/28 05:45:10;;;;;;;5.43;4.60;;;;;;;13.32;100.00;96979.09;5040817;28;20243;-55
2023/09/28 05:47:38;;;;;;;6.30;5.35;;;;;;;13.34;100.00;96982.41;5041662;28;20261;-56
2023/09/28 05:50:06;;;;;;;5.72;5.22;;;;;;;13.34;100.00;96990.38;5040853;28;20216;-56
2023/09/28 05:52:33;;;;;;;9.88;5.13;;;;;;;13.37;100.00;96988.25;5041238;28;20696;-57
2023/09/28 05:54:59;;;;;;;7.00;5.17;;;;;;;13.43;100.00;96989.47;5040911;28;20230;-56
2023/09/28 05:57:28;;;;;;;7.47;5.05;;;;;;;13.47;100.00;96990.84;5042304;28;20211;-55
2023/09/28 05:59:55;;;;;;;6.93;4.87;;;;;;;13.52;100.00;96987.72;5041533;28;20230;-52
2023/09/28 06:02:21;;;;;;;7.30;5.27;;;;;;;13.55;100.00;96993.56;5042082;28;20635;-54
2023/09/28 06:04:48;;;;;;;8.25;5.25;;;;;;;13.60;100.00;97001.09;5041296;28;20210;-55
2023/09/28 06:07:15;;;;;;;7.53;5.72;;;;;;;13.67;100.00;97003.00;5042574;28;20220;-54
2023/09/28 06:09:42;;;;;;;6.77;5.03;;;;;;;13.69;100.00;96990.38;5041327;28;20195;-55
2023/09/28 06:12:08;;;;;;;5.32;4.85;;;;;;;13.76;100.00;96990.59;5041783;28;20207;-56
2023/09/28 06:14:39;;;;;;;6.60;5.17;;;;;;;13.81;100.00;96989.16;5041416;28;20227;-56
2023/09/28 06:17:05;;;;;;;5.50;5.00;;;;;;;13.87;100.00;96993.84;5040983;28;20203;-55
2023/09/28 06:19:33;;;;;;;6.88;5.03;;;;;;;13.91;100.00;96995.22;5048496;28;20204;-56
2023/09/28 06:22:00;;;;;;;6.55;5.50;;;;;;;14.02;100.00;96990.63;5052662;28;20304;-56
2023/09/28 06:24:28;;;;;;;5.72;5.22;;;;;;;14.07;100.00;96985.66;5051895;28;20208;-56
2023/09/28 06:26:55;;;;;;;7.45;5.70;;;;;;;14.14;100.00;96989.34;5049442;28;20250;-56
2023/09/28 06:29:21;;;;;;;6.10;5.33;;;;;;;14.17;100.00;96994.38;5048973;28;20239;-56
2023/09/28 06:31:51;;;;;;;6.07;5.47;;;;;;;14.22;100.00;97005.38;5054409;28;20198;-56
2023/09/28 06:34:18;;;;;;;7.35;5.78;;;;;;;14.27;100.00;97019.91;5055607;28;20199;-60
2023/09/28 06:36:44;;;;;;;7.03;5.47;;;;;;;14.38;100.00;97024.16;5059268;28;20192;-56
2023/09/28 06:39:11;;;;;;;6.15;5.65;;;;;;;14.48;100.00;97016.03;5054439;28;20199;-55
2023/09/28 06:41:38;;;;;;;6.47;5.88;;;;;;;14.57;100.00;97018.59;5044687;28;20203;-55
2023/09/28 06:44:04;;;;;;;6.70;6.03;;;;;;;14.63;100.00;97014.47;5044140;28;20203;-56
2023/09/28 06:46:31;;;;;;;7.57;6.00;;;;;;;14.69;100.00;97025.31;5044418;28;20234;-56
2023/09/28 06:48:59;;;;;;;6.95;6.05;;;;;;;14.72;100.00;97026.81;5043695;28;20231;-56
2023/09/28 06:51:27;;;;;;;6.80;5.97;;;;;;;14.80;100.00;97024.19;5043942;28;20665;-56
2023/09/28 06:53:54;;;;;;;9.05;6.28;;;;;;;14.83;100.00;97030.03;5044488;28;20237;-56
2023/09/28 06:56:20;;;;;;;8.15;6.20;;;;;;;14.93;100.00;97030.75;5043935;28;20211;-57
2023/09/28 06:58:47;;;;;;;7.05;6.05;;;;;;;14.99;100.00;97023.09;5043843;28;20207;-55
2023/09/28 07:01:13;;;;;;;8.48;6.55;;;;;;;15.12;100.00;97012.81;5043821;28;20254;-55
2023/09/28 07:03:40;;;;;;;9.27;6.50;;;;;;;15.27;100.00;97012.00;5043311;28;20226;-56
2023/09/28 07:06:08;;;;;;;7.20;6.50;;;;;;;15.39;100.00;97004.56;5044014;28;20544;-56
2023/09/28 07:08:34;;;;;;;7.03;6.22;;;;;;;15.57;100.00;97010.63;5043017;28;20250;-56
2023/09/28 07:11:02;;;;;;;7.45;5.90;;;;;;;15.71;100.00;97019.78;5043491;28;21425;-55
2023/09/28 07:13:28;;;;;;;7.07;6.38;;;;;;;15.77;100.00;97025.28;5043783;28;20204;-57
2023/09/28 07:15:57;;;;;;;7.45;6.75;;;;;;;15.75;100.00;97019.31;5043533;28;20207;-55
2023/09/28 07:18:25;;;;;;;7.05;6.22;;;;;;;15.74;100.00;97028.28;5043246;28;20195;-56
2023/09/28 07:20:52;;;;;;;7.75;6.50;;;;;;;15.71;100.00;97019.78;5043898;28;20748;-57
2023/09/28 07:23:20;;;;;;;7.68;6.72;;;;;;;15.69;100.00;97027.13;5043617;28;20204;-55
2023/09/28 07:25:47;;;;;;;7.93;6.50;;;;;;;15.76;100.00;97028.97;5043447;28;20234;-56
2023/09/28 07:28:13;;;;;;;9.57;7.20;;;;;;;15.80;100.00;97024.16;5043744;28;20242;-57
2023/09/28 07:30:40;;;;;;;8.98;7.47;;;;;;;15.84;100.00;97031.63;5043596;28;20211;-55
2023/09/28 07:33:07;;;;;;;10.40;7.07;;;;;;;15.87;100.00;97033.97;5043272;28;20199;-55
2023/09/28 07:35:33;;;;;;;14.10;7.38;;;;;;;15.92;100.00;97039.63;5043066;28;20261;-55
2023/09/28 07:38:00;;;;;;;13.05;7.68;;;;;;;15.94;100.00;97036.81;5044187;28;20203;-57
2023/09/28 07:40:28;;;;;;;11.73;7.45;;;;;;;15.98;100.00;97027.44;5043206;28;20210;-56
2023/09/28 07:42:54;;;;;;;9.57;6.53;;;;;;;16.00;100.00;97037.97;5043735;28;20203;-56
2023/09/28 07:45:21;;;;;;;13.15;7.38;;;;;;;16.06;100.00;97040.78;5041845;28;20495;-55
2023/09/28 07:47:48;;;;;;;8.30;6.40;;;;;;;16.13;100.00;97040.97;5043271;28;20540;-55
2023/09/28 07:50:15;;;;;;;9.05;6.30;;;;;;;16.19;100.00;97048.31;5042876;28;20195;-57
2023/09/28 07:52:42;;;;;;;11.85;7.20;;;;;;;16.23;100.00;97042.44;5043658;28;20211;-55
2023/09/28 07:55:09;;;;;;;9.98;7.20;;;;;;;16.32;100.00;97045.97;5042694;28;20527;-55
2023/09/28 07:57:37;;;;;;;8.48;7.10;;;;;;;16.40;100.00;97045.97;5042998;28;20195;-56
2023/09/28 08:00:06;;;;;;;11.25;7.05;;;;;;;16.47;100.00;97044.28;5043007;28;20199;-55
2023/09/28 08:02:33;;;;;;;7.75;6.70;;;;;;;16.54;100.00;97045.25;5043719;28;20207;-57
2023/09/28 08:05:01;;;;;;;8.45;6.97;;;;;;;16.60;100.00;97044.59;5042538;28;20849;-56
2023/09/28 08:07:30;;;;;;;7.15;6.45;;;;;;;16.70;100.00;97055.94;5043246;28;20246;-57
2023/09/28 08:09:57;;;;;;;9.13;6.53;;;;;;;16.83;100.00;97045.53;5043674;28;20200;-56
2023/09/28 08:12:23;;;;;;;13.40;7.32;;;;;;;16.92;100.00;97054.34;5043633;28;20211;-56
2023/09/28 08:14:53;;;;;;;11.20;7.30;;;;;;;16.99;100.00;97051.81;5043392;28;20210;-56
2023/09/28 08:17:20;;;;;;;7.78;6.60;;;;;;;17.07;100.00;97049.97;5043459;28;20196;-56
2023/09/28 08:19:46;;;;;;;9.95;6.70;;;;;;;17.15;100.00;97052.59;5042632;28;20196;-57
2023/09/28 08:22:13;;;;;;;7.90;6.90;;;;;;;17.34;100.00;97054.00;5043029;28;20532;-57
2023/09/28 08:24:40;;;;;;;6.95;6.10;;;;;;;17.43;100.00;97047.59;5042920;28;20199;-57
2023/09/28 08:27:06;;;;;;;10.10;6.75;;;;;;;17.52;100.00;97046.56;5042666;28;20671;-56
2023/09/28 08:29:34;;;;;;;7.82;6.55;;;;;;;17.58;100.00;97045.03;5043074;28;21511;-56
2023/09/28 08:32:02;;;;;;;10.18;6.90;;;;;;;17.68;100.00;97045.63;5043094;28;20199;-56
2023/09/28 08:34:29;;;;;;;9.98;6.53;;;;;;;17.75;100.00;97047.44;5042223;28;20200;-56
2023/09/28 08:36:56;;;;;;;6.75;5.25;;;;;;;17.85;100.00;97042.66;5042660;28;20204;-56
2023/09/28 08:39:22;;;;;;;8.88;5.82;;;;;;;17.97;100.00;97055.63;5045675;28;20208;-55
2023/09/28 08:41:55;;;;;;;8.48;6.40;;;;;;;18.08;100.00;97048.03;5043782;28;20210;-55
2023/09/28 08:44:25;;;;;;;8.10;6.45;;;;;;;18.21;100.00;97058.13;5043270;28;20196;-57
2023/09/28 08:46:57;;;;;;;9.00;7.45;;;;;;;18.39;100.00;97055.94;5043384;28;20207;-56
2023/09/28 08:49:27;;;;;;;6.93;6.15;;;;;;;18.59;100.00;97053.63;5042749;28;20195;-56
2023/09/28 08:51:54;;;;;;;10.60;6.65;;;;;;;18.74;100.00;97049.13;5042459;28;20208;-56
2023/09/28 08:54:20;;;;;;;6.88;5.15;;;;;;;18.91;100.00;97037.19;5042456;28;20230;-56
2023/09/28 08:56:48;;;;;;;5.50;4.97;;;;;;;19.15;100.00;97039.59;5040912;28;20200;-56
2023/09/28 08:59:16;;;;;;;6.07;5.05;;;;;;;19.43;100.00;97037.06;5042172;28;21399;-56
2023/09/28 09:01:43;;;;;;;5.32;4.63;;;;;;;19.71;100.00;97032.63;5042086;28;20284;-57
2023/09/28 09:04:11;;;;;;;5.50;5.00;;;;;;;20.01;100.00;97037.88;5041776;28;20214;-56
2023/09/28 09:06:39;;;;;;;7.63;5.07;;;;;;;20.27;100.00;97040.78;5041992;28;20318;-56
2023/09/28 09:09:06;;;;;;;5.68;4.70;;;;;;;20.50;100.00;97028.00;5042176;28;20199;-56
2023/09/28 09:11:37;;;;;;;5.55;4.30;;;;;;;20.77;100.00;97026.31;5042222;28;20217;-57
2023/09/28 09:14:03;;;;;;;10.30;5.47;;;;;;;20.97;100.00;97026.44;5042082;28;20192;-57
2023/09/28 09:16:30;;;;;;;5.65;4.82;;;;;;;21.15;100.00;97024.09;5041515;28;20203;-56
2023/09/28 09:18:57;;;;;;;5.25;4.75;;;;;;;21.41;98.60;97031.44;5041284;28;20214;-57
2023/09/28 09:21:24;;;;;;;5.70;4.80;;;;;;;21.77;100.00;97027.41;5041383;28;20333;-57
2023/09/28 09:24:02;;;;;;;7.72;5.07;;;;;;;22.02;93.24;97024.16;5041334;28;20218;-56
2023/09/28 09:26:29;;;;;;;6.65;4.70;;;;;;;22.18;97.53;97029.97;5042060;28;20212;-57
2023/09/28 09:29:00;;;;;;;4.85;4.07;;;;;;;22.42;93.63;97027.72;5041462;28;20236;-56
2023/09/28 09:31:27;;;;;;;6.78;5.18;;;;;;;22.65;93.71;97031.66;5041928;28;20246;-56
2023/09/28 09:33:53;;;;;;;5.47;4.82;;;;;;;22.74;91.13;97024.22;5041249;28;20207;-57
2023/09/28 09:36:19;;;;;;;5.57;4.45;;;;;;;22.88;91.42;97025.00;5041799;28;20200;-56
2023/09/28 09:38:47;;;;;;;5.60;5.03;;;;;;;23.09;89.21;97032.84;5041458;28;20261;-56
2023/09/28 09:41:17;;;;;;;5.13;4.53;;;;;;;23.13;86.67;97018.69;5042484;28;20195;-58
2023/09/28 09:43:44;;;;;;;5.68;4.22;;;;;;;23.17;85.31;97028.03;5042474;28;20199;-57
2023/09/28 09:46:11;;;;;;;6.38;4.30;;;;;;;23.53;84.74;97023.97;5041155;28;20233;-56
2023/09/28 09:48:40;;;;;;;4.82;3.95;;;;;;;23.84;83.54;97025.91;5041477;28;20767;-57
2023/09/28 09:51:10;;;;;;;6.43;4.78;;;;;;;23.78;80.68;97020.31;5041731;28;20650;-57
2023/09/28 09:53:39;;;;;;;6.68;4.30;;;;;;;24.05;82.51;97017.44;5041793;28;20200;-57
2023/09/28 09:56:06;;;;;;;6.50;4.50;;;;;;;24.34;78.99;97021.44;5041902;28;20553;-55
2023/09/28 09:58:39;;;;;;;6.43;4.63;;;;;;;24.30;78.44;97023.75;5042347;28;20556;-55
2023/09/28 10:01:09;;;;;;;8.10;4.60;;;;;;;24.43;77.00;97015.53;5041747;28;20203;-55
2023/09/28 10:03:37;;;;;;;5.50;4.47;;;;;;;24.58;77.68;97013.31;5040993;28;20207;-55
2023/09/28 10:06:04;;;;;;;4.13;3.72;;;;;;;24.95;77.83;97003.38;5041987;28;20207;-55
2023/09/28 10:08:33;;;;;;;7.88;4.50;;;;;;;25.16;73.42;96999.41;5042375;28;20231;-58
2023/09/28 10:11:01;;;;;;;6.50;4.32;;;;;;;25.30;74.29;96995.50;5045669;28;20208;-56
2023/09/28 10:13:31;;;;;;;7.90;4.68;;;;;;;25.01;72.14;96991.66;5045988;28;20545;-57
2023/09/28 10:16:00;;;;;;;6.93;4.28;;;;;;;25.17;72.91;96984.81;5050746;28;20223;-56
2023/09/28 10:18:28;;;;;;;4.32;3.95;;;;;;;25.05;74.20;96987.44;5047676;28;20198;-57
2023/09/28 10:20:55;;;;;;;4.45;4.03;;;;;;;24.89;75.19;96984.53;5044787;28;20663;-55
2023/09/28 10:23:24;;;;;;;4.55;3.95;;;;;;;24.88;76.06;96985.56;5045360;28;20287;-56
2023/09/28 10:25:55;;;;;;;5.65;4.28;;;;;;;24.96;76.05;96980.69;5045426;28;20259;-56
2023/09/28 10:28:21;;;;;;;6.18;4.70;;;;;;;25.28;76.55;96981.38;5045147;28;20317;-57
2023/09/28 10:30:48;;;;;;;5.00;4.55;;;;;;;25.43;73.22;96984.50;5044757;28;20231;-57
2023/09/28 10:33:16;;;;;;;5.47;4.47;;;;;;;25.23;72.05;96987.44;5045617;28;20211;-57
2023/09/28 10:35:44;;;;;;;5.80;4.15;;;;;;;25.39;73.29;96977.91;5046629;28;20231;-58
2023/09/28 10:38:20;;;;;;;5.15;4.13;;;;;;;25.64;69.81;96973.22;5046855;28;20210;-55
2023/09/28 10:40:52;;;;;;;5.65;4.65;;;;;;;25.71;67.44;96976.66;5046968;28;20286;-56
2023/09/28 10:43:29;;;;;;;6.38;4.55;;;;;;;25.79;65.43;96978.19;5050549;28;20227;-56
2023/09/28 10:45:56;;;;;;;4.60;4.20;;;;;;;25.51;66.85;96978.78;5052081;28;20217;-55
2023/09/28 10:48:24;;;;;;;4.43;4.00;;;;;;;25.68;67.30;96974.38;5052160;28;20219;-55
2023/09/28 10:50:52;;;;;;;6.05;5.00;;;;;;;25.71;69.39;96978.53;5062470;28;20200;-54
2023/09/28 10:53:19;;;;;;;5.30;4.00;;;;;;;25.91;65.01;96981.78;5064486;28;20242;-60
2023/09/28 10:55:46;;;;;;;4.40;4.00;;;;;;;26.07;67.42;96977.59;5056317;28;20219;-57
2023/09/28 10:58:13;;;;;;;5.45;4.07;;;;;;;26.12;66.69;96975.00;5054924;28;20222;-57
2023/09/28 11:00:41;;;;;;;4.68;4.28;;;;;;;26.18;62.85;96982.25;5046409;28;20239;-57
2023/09/28 11:03:08;;;;;;;4.53;4.13;;;;;;;26.51;64.76;96982.50;5044900;28;20270;-57
2023/09/28 11:05:37;;;;;;;5.28;4.30;;;;;;;26.77;63.89;96973.06;5045009;28;20596;-57
2023/09/28 11:08:04;;;;;;;4.65;4.20;;;;;;;26.98;63.64;96968.94;5044475;28;20229;-56
2023/09/28 11:10:31;;;;;;;5.13;4.38;;;;;;;27.30;67.67;96962.03;5044539;28;20200;-57
2023/09/28 11:12:58;;;;;;;5.78;4.55;;;;;;;27.30;62.08;96963.91;5044732;28;20637;-57
2023/09/28 11:15:29;;;;;;;4.80;4.40;;;;;;;27.37;58.55;96965.44;5044520;28;20227;-57
2023/09/28 11:17:56;;;;;;;5.57;4.15;;;;;;;27.48;57.79;96951.03;5044496;28;20636;-57
2023/09/28 11:20:22;;;;;;;7.57;4.88;;;;;;;27.73;57.87;96953.41;5043876;28;20785;-57
2023/09/28 11:22:56;;;;;;;4.85;4.30;;;;;;;28.08;57.17;96945.06;5044060;28;20258;-57
2023/09/28 11:25:23;;;;;;;8.27;4.40;;;;;;;28.32;56.37;96957.44;5044591;28;20682;-56
2023/09/28 11:27:50;;;;;;;5.57;4.70;;;;;;;28.32;57.54;96948.44;5044088;28;20231;-56